Terminal Aerodrome Forecast
Issued by NWS

Home | Current Version | Previous Version | Text Only | Print | Product List | Glossary On
Versions: 1 2 3 4 5 6 7 8 9 10 11 12 13
122
FTUS43 KGRR 291140
TAFBTL
TAF
KBTL 291140Z 2912/3012 02006KT P6SM SKC
     FM291500 05012KT P6SM SCT060
     FM300000 35004KT P6SM SKC=

USA.gov is the U.S. government's official web portal to all federal, state and local government web resources and services.